Track Склярова Карина

Time Latitude Longitude Accuracy (66% radius in meters) Altitude (meters) Speed (km/hour) Bearing (degrees) Battery (%) GPS flag
03:54:30 51.902431 107.665693 4 708 0.50999999046326 316.79998779297 16 1 delete
03:54:23 51.902378 107.665818 4 706 1.3500000238419 317.10000610352 16 1 delete
03:54:18 51.902339 107.665888 5 704 0 0 16 1 delete
03:54:15 51.902321 107.665941 5 703 1.2000000476837 310.5 16 1 delete
03:54:09 51.902259 107.666086 5 699 0.75999999046326 310.5 16 1 delete
03:54:07 51.902244 107.666122 4 699 1.1399999856949 322 16 1 delete
03:54:01 51.902188 107.666191 4 698 0.94999998807907 344.70001220703 16 1 delete
03:53:44 51.902115 107.666286 7 701 0.64999997615814 337.29998779297 16 1 delete
03:53:36 51.902032 107.666370 6 698 1.1599999666214 333.79998779297 16 1 delete
03:53:26 51.901956 107.666468 6 698 0.87999999523163 0.10000000149012 16 1 delete
03:53:25 51.901949 107.666472 6 698 0.83999997377396 7.9000000953674 16 1 delete
03:53:16 51.901878 107.666541 6 701 0.87000000476837 9.6000003814697 16 1 delete
03:53:14 51.901857 107.666532 5 701 0.5799999833107 37.900001525879 16 1 delete
03:52:39 51.901779 107.666386 4 703 0 0 16 1 delete
03:52:23 51.901851 107.666489 3 704 0.21999999880791 31.60000038147 16 1 delete
03:52:12 51.901842 107.666488 3 702 0 0 16 1 delete
03:52:01 51.901819 107.666452 4 702 1.3899999856949 50.299999237061 16 1 delete
03:52:00 51.901810 107.666435 4 702 1.4900000095367 45.5 16 1 delete
03:51:52 51.901754 107.666317 4 702 0.68999999761581 75.300003051758 16 1 delete
03:51:50 51.901747 107.666290 4 702 0.77999997138977 69.5 16 1 delete
03:51:40 51.901728 107.666171 3 701 0.6700000166893 72.5 16 1 delete
03:51:39 51.901726 107.666160 4 700 0.87999999523163 65.900001525879 16 1 delete
03:51:28 51.901699 107.666065 3 699 0.40999999642372 65.900001525879 16 1 delete
03:51:24 51.901697 107.666032 3 699 0 0 16 1 delete
03:51:17 51.901676 107.665981 3 696 0.73000001907349 65.699996948242 16 1 delete
03:51:12 51.901662 107.665898 4 693 0.68999999761581 81 16 1 delete
03:51:06 51.901644 107.665829 5 690 0 0 16 1 delete
03:50:55 51.901611 107.665786 3 690 0.17000000178814 333.10000610352 16 1 delete
03:50:49 51.901605 107.665785 3 689 0.5799999833107 341.89999389648 16 1 delete
03:50:44 51.901563 107.665793 3 690 0.79000002145767 352.60000610352 16 1 delete
03:50:33 51.901539 107.665785 3 688 0 0 16 1 delete
03:50:22 51.901523 107.665711 3 689 0.70999997854233 99.099998474121 16 1 delete
03:50:11 51.901537 107.665564 3 687 0.64999997615814 75.800003051758 16 1 delete
03:50:10 51.901537 107.665555 3 687 0.61000001430511 75.800003051758 16 1 delete
03:49:59 51.901514 107.665415 3 686 0.76999998092651 85.599998474121 16 1 delete
03:49:48 51.901511 107.665265 3 684 1.0199999809265 87.699996948242 27 1 delete
03:49:40 51.901508 107.665110 3 683 1.1900000572205 89.900001525879 27 1 delete
03:49:37 51.901501 107.665048 3 683 1.3799999952316 89.900001525879 27 1 delete
03:49:33 51.901491 107.664960 3 682 0.9200000166893 68.400001525879 27 1 delete
03:49:26 51.901463 107.664820 3 683 1.3300000429153 68.5 27 1 delete
03:49:15 51.901452 107.664763 3 685 0 0 27 1 delete
03:49:04 51.901456 107.664815 4 683 0 0 27 1 delete
03:48:53 51.901433 107.664847 5 684 0 0 27 1 delete
03:48:48 51.901430 107.664846 5 685 0.88999998569489 291 27 1 delete
03:48:41 51.901399 107.664967 4 685 1.4500000476837 295.20001220703 27 1 delete
03:48:40 51.901392 107.664992 4 685 1.6100000143051 298.60000610352 27 1 delete
03:48:34 51.901321 107.665095 4 684 1.5299999713898 329 27 1 delete
03:48:30 51.901253 107.665142 3 683 1.6100000143051 335.89999389648 27 1 delete
03:48:29 51.901237 107.665154 3 683 1.8999999761581 336.10000610352 27 1 delete
03:48:19 51.901167 107.665237 4 684 0.83999997377396 333.29998779297 27 1 delete